sensor_id;sensor_type;location;lat;lon;timestamp;P1;durP1;ratioP1;P2;durP2;ratioP2
5303;SDS011;2674;49.722;10.892;2023-07-09T00:01:50;9.30;;;6.27;;
5303;SDS011;2674;49.722;10.892;2023-07-09T00:04:16;8.73;;;7.13;;
5303;SDS011;2674;49.722;10.892;2023-07-09T00:06:43;17.53;;;7.13;;
5303;SDS011;2674;49.722;10.892;2023-07-09T00:09:11;10.87;;;7.37;;
5303;SDS011;2674;49.722;10.892;2023-07-09T00:11:43;13.13;;;7.90;;
5303;SDS011;2674;49.722;10.892;2023-07-09T00:14:12;8.07;;;7.07;;
5303;SDS011;2674;49.722;10.892;2023-07-09T00:16:43;9.43;;;7.17;;
5303;SDS011;2674;49.722;10.892;2023-07-09T00:19:14;11.30;;;6.60;;
5303;SDS011;2674;49.722;10.892;2023-07-09T00:21:45;8.20;;;7.43;;
5303;SDS011;2674;49.722;10.892;2023-07-09T00:24:14;10.77;;;6.40;;
5303;SDS011;2674;49.722;10.892;2023-07-09T00:26:40;10.47;;;8.13;;
5303;SDS011;2674;49.722;10.892;2023-07-09T00:29:10;8.43;;;6.93;;
5303;SDS011;2674;49.722;10.892;2023-07-09T00:31:36;8.90;;;6.90;;
5303;SDS011;2674;49.722;10.892;2023-07-09T00:34:09;11.50;;;7.00;;
5303;SDS011;2674;49.722;10.892;2023-07-09T00:36:37;10.33;;;6.90;;
5303;SDS011;2674;49.722;10.892;2023-07-09T00:39:03;12.90;;;7.83;;
5303;SDS011;2674;49.722;10.892;2023-07-09T00:41:36;13.90;;;7.50;;
5303;SDS011;2674;49.722;10.892;2023-07-09T00:49:40;8.63;;;6.13;;
5303;SDS011;2674;49.722;10.892;2023-07-09T00:52:20;11.37;;;6.80;;
5303;SDS011;2674;49.722;10.892;2023-07-09T00:54:51;10.20;;;5.67;;
5303;SDS011;2674;49.722;10.892;2023-07-09T00:57:19;7.27;;;6.30;;
5303;SDS011;2674;49.722;10.892;2023-07-09T00:59:49;7.63;;;6.80;;
5303;SDS011;2674;49.722;10.892;2023-07-09T01:02:25;7.67;;;6.70;;
5303;SDS011;2674;49.722;10.892;2023-07-09T01:04:53;17.10;;;6.00;;
5303;SDS011;2674;49.722;10.892;2023-07-09T01:07:25;13.40;;;6.00;;
5303;SDS011;2674;49.722;10.892;2023-07-09T01:09:53;7.40;;;6.10;;
5303;SDS011;2674;49.722;10.892;2023-07-09T01:12:19;8.60;;;6.30;;
5303;SDS011;2674;49.722;10.892;2023-07-09T01:14:46;10.97;;;7.40;;
5303;SDS011;2674;49.722;10.892;2023-07-09T01:17:16;10.53;;;6.40;;
5303;SDS011;2674;49.722;10.892;2023-07-09T01:19:49;9.33;;;6.50;;
5303;SDS011;2674;49.722;10.892;2023-07-09T01:22:16;11.13;;;7.57;;
5303;SDS011;2674;49.722;10.892;2023-07-09T01:27:30;6.20;;;5.60;;
5303;SDS011;2674;49.722;10.892;2023-07-09T01:29:59;6.63;;;6.00;;
5303;SDS011;2674;49.722;10.892;2023-07-09T01:32:28;8.40;;;6.70;;
5303;SDS011;2674;49.722;10.892;2023-07-09T01:34:55;10.53;;;6.73;;
5303;SDS011;2674;49.722;10.892;2023-07-09T01:37:28;8.43;;;5.90;;
5303;SDS011;2674;49.722;10.892;2023-07-09T01:39:54;9.20;;;7.07;;
5303;SDS011;2674;49.722;10.892;2023-07-09T01:42:21;15.07;;;7.30;;
5303;SDS011;2674;49.722;10.892;2023-07-09T01:44:49;10.77;;;7.20;;
5303;SDS011;2674;49.722;10.892;2023-07-09T01:47:17;12.07;;;7.90;;
5303;SDS011;2674;49.722;10.892;2023-07-09T01:49:43;9.07;;;6.60;;
5303;SDS011;2674;49.722;10.892;2023-07-09T01:52:11;8.53;;;6.60;;
5303;SDS011;2674;49.722;10.892;2023-07-09T01:54:39;9.00;;;8.07;;
5303;SDS011;2674;49.722;10.892;2023-07-09T01:59:51;10.00;;;7.10;;
5303;SDS011;2674;49.722;10.892;2023-07-09T02:02:20;15.47;;;6.63;;
5303;SDS011;2674;49.722;10.892;2023-07-09T02:04:50;7.90;;;6.20;;
5303;SDS011;2674;49.722;10.892;2023-07-09T02:07:17;10.17;;;6.90;;
5303;SDS011;2674;49.722;10.892;2023-07-09T02:09:44;8.13;;;6.43;;
5303;SDS011;2674;49.722;10.892;2023-07-09T02:12:11;7.70;;;6.47;;
5303;SDS011;2674;49.722;10.892;2023-07-09T02:14:38;7.30;;;5.47;;
5303;SDS011;2674;49.722;10.892;2023-07-09T02:17:05;8.07;;;6.30;;
5303;SDS011;2674;49.722;10.892;2023-07-09T02:19:31;8.00;;;7.20;;
5303;SDS011;2674;49.722;10.892;2023-07-09T02:21:56;9.77;;;6.67;;
5303;SDS011;2674;49.722;10.892;2023-07-09T02:24:23;8.23;;;6.27;;
5303;SDS011;2674;49.722;10.892;2023-07-09T02:26:50;6.70;;;6.10;;
5303;SDS011;2674;49.722;10.892;2023-07-09T02:29:17;8.13;;;5.83;;
5303;SDS011;2674;49.722;10.892;2023-07-09T02:31:43;11.30;;;6.70;;
5303;SDS011;2674;49.722;10.892;2023-07-09T02:34:09;6.83;;;6.13;;
5303;SDS011;2674;49.722;10.892;2023-07-09T02:36:35;11.40;;;6.90;;
5303;SDS011;2674;49.722;10.892;2023-07-09T02:39:01;14.07;;;6.53;;
5303;SDS011;2674;49.722;10.892;2023-07-09T02:41:27;8.90;;;6.63;;
5303;SDS011;2674;49.722;10.892;2023-07-09T02:43:53;9.97;;;7.03;;
5303;SDS011;2674;49.722;10.892;2023-07-09T02:46:19;7.57;;;5.70;;
5303;SDS011;2674;49.722;10.892;2023-07-09T02:48:45;9.30;;;6.43;;
5303;SDS011;2674;49.722;10.892;2023-07-09T02:51:10;11.87;;;6.83;;
5303;SDS011;2674;49.722;10.892;2023-07-09T02:53:36;12.80;;;6.70;;
5303;SDS011;2674;49.722;10.892;2023-07-09T02:56:02;12.40;;;7.60;;
5303;SDS011;2674;49.722;10.892;2023-07-09T02:58:28;10.10;;;6.73;;
5303;SDS011;2674;49.722;10.892;2023-07-09T03:00:53;7.93;;;6.20;;
5303;SDS011;2674;49.722;10.892;2023-07-09T03:03:20;9.50;;;6.60;;
5303;SDS011;2674;49.722;10.892;2023-07-09T03:05:46;11.30;;;6.43;;
5303;SDS011;2674;49.722;10.892;2023-07-09T03:08:13;9.30;;;7.60;;
5303;SDS011;2674;49.722;10.892;2023-07-09T03:10:39;10.97;;;7.30;;
5303;SDS011;2674;49.722;10.892;2023-07-09T03:13:05;9.13;;;6.60;;
5303;SDS011;2674;49.722;10.892;2023-07-09T03:15:31;8.63;;;6.30;;
5303;SDS011;2674;49.722;10.892;2023-07-09T03:17:57;11.37;;;7.70;;
5303;SDS011;2674;49.722;10.892;2023-07-09T03:20:23;9.53;;;6.47;;
5303;SDS011;2674;49.722;10.892;2023-07-09T03:22:50;9.40;;;6.63;;
5303;SDS011;2674;49.722;10.892;2023-07-09T03:25:16;10.73;;;7.60;;
5303;SDS011;2674;49.722;10.892;2023-07-09T03:27:41;15.23;;;6.80;;
5303;SDS011;2674;49.722;10.892;2023-07-09T03:30:07;10.33;;;7.23;;
5303;SDS011;2674;49.722;10.892;2023-07-09T03:32:33;13.70;;;6.40;;
5303;SDS011;2674;49.722;10.892;2023-07-09T03:34:59;17.40;;;6.53;;
5303;SDS011;2674;49.722;10.892;2023-07-09T03:37:25;8.70;;;6.20;;
5303;SDS011;2674;49.722;10.892;2023-07-09T03:39:51;7.57;;;6.37;;
5303;SDS011;2674;49.722;10.892;2023-07-09T03:42:17;11.80;;;6.73;;
5303;SDS011;2674;49.722;10.892;2023-07-09T03:44:42;12.03;;;7.67;;
5303;SDS011;2674;49.722;10.892;2023-07-09T03:47:08;9.13;;;6.53;;
5303;SDS011;2674;49.722;10.892;2023-07-09T03:49:34;18.10;;;6.73;;
5303;SDS011;2674;49.722;10.892;2023-07-09T03:52:00;8.20;;;6.40;;
5303;SDS011;2674;49.722;10.892;2023-07-09T03:54:26;7.90;;;6.90;;
5303;SDS011;2674;49.722;10.892;2023-07-09T03:56:52;8.27;;;6.73;;
5303;SDS011;2674;49.722;10.892;2023-07-09T03:59:18;7.30;;;6.23;;
5303;SDS011;2674;49.722;10.892;2023-07-09T04:01:44;9.30;;;6.80;;
5303;SDS011;2674;49.722;10.892;2023-07-09T04:04:11;8.73;;;6.37;;
5303;SDS011;2674;49.722;10.892;2023-07-09T04:06:37;8.53;;;6.70;;
5303;SDS011;2674;49.722;10.892;2023-07-09T04:09:03;11.33;;;7.33;;
5303;SDS011;2674;49.722;10.892;2023-07-09T04:11:29;12.20;;;7.40;;
5303;SDS011;2674;49.722;10.892;2023-07-09T04:13:55;8.00;;;7.07;;
5303;SDS011;2674;49.722;10.892;2023-07-09T04:16:21;10.10;;;7.53;;
5303;SDS011;2674;49.722;10.892;2023-07-09T04:18:47;9.17;;;6.07;;
5303;SDS011;2674;49.722;10.892;2023-07-09T04:21:13;11.23;;;7.40;;
5303;SDS011;2674;49.722;10.892;2023-07-09T04:23:39;8.67;;;7.00;;
5303;SDS011;2674;49.722;10.892;2023-07-09T04:26:04;11.27;;;6.97;;
5303;SDS011;2674;49.722;10.892;2023-07-09T04:28:34;8.17;;;7.10;;
5303;SDS011;2674;49.722;10.892;2023-07-09T04:31:00;8.90;;;6.80;;
5303;SDS011;2674;49.722;10.892;2023-07-09T04:33:26;15.17;;;7.43;;
5303;SDS011;2674;49.722;10.892;2023-07-09T04:35:51;10.37;;;7.80;;
5303;SDS011;2674;49.722;10.892;2023-07-09T04:38:17;8.47;;;6.80;;
5303;SDS011;2674;49.722;10.892;2023-07-09T04:40:43;15.10;;;8.40;;
5303;SDS011;2674;49.722;10.892;2023-07-09T04:43:11;12.47;;;7.53;;
5303;SDS011;2674;49.722;10.892;2023-07-09T04:45:37;7.90;;;6.47;;
5303;SDS011;2674;49.722;10.892;2023-07-09T04:48:03;9.10;;;7.50;;
5303;SDS011;2674;49.722;10.892;2023-07-09T04:50:29;14.43;;;7.27;;
5303;SDS011;2674;49.722;10.892;2023-07-09T04:52:55;13.57;;;7.07;;
5303;SDS011;2674;49.722;10.892;2023-07-09T04:55:20;10.50;;;7.23;;
5303;SDS011;2674;49.722;10.892;2023-07-09T04:57:46;8.50;;;7.20;;
5303;SDS011;2674;49.722;10.892;2023-07-09T05:00:12;8.60;;;7.20;;
5303;SDS011;2674;49.722;10.892;2023-07-09T05:02:38;8.57;;;7.33;;
5303;SDS011;2674;49.722;10.892;2023-07-09T05:05:04;8.47;;;6.73;;
5303;SDS011;2674;49.722;10.892;2023-07-09T05:07:32;8.90;;;6.57;;
5303;SDS011;2674;49.722;10.892;2023-07-09T05:09:58;8.10;;;7.30;;
5303;SDS011;2674;49.722;10.892;2023-07-09T05:12:26;8.10;;;6.80;;
5303;SDS011;2674;49.722;10.892;2023-07-09T05:14:52;10.37;;;7.33;;
5303;SDS011;2674;49.722;10.892;2023-07-09T05:17:19;7.57;;;6.13;;
5303;SDS011;2674;49.722;10.892;2023-07-09T05:19:45;8.40;;;6.40;;
5303;SDS011;2674;49.722;10.892;2023-07-09T05:22:11;9.20;;;6.77;;
5303;SDS011;2674;49.722;10.892;2023-07-09T05:24:36;14.73;;;7.73;;
5303;SDS011;2674;49.722;10.892;2023-07-09T05:27:02;8.47;;;7.40;;
5303;SDS011;2674;49.722;10.892;2023-07-09T05:29:28;8.70;;;7.37;;
5303;SDS011;2674;49.722;10.892;2023-07-09T05:31:54;8.13;;;6.43;;
5303;SDS011;2674;49.722;10.892;2023-07-09T05:34:20;9.70;;;7.37;;
5303;SDS011;2674;49.722;10.892;2023-07-09T05:36:46;9.93;;;7.00;;
5303;SDS011;2674;49.722;10.892;2023-07-09T05:39:12;9.40;;;7.00;;
5303;SDS011;2674;49.722;10.892;2023-07-09T05:41:38;7.63;;;6.27;;
5303;SDS011;2674;49.722;10.892;2023-07-09T05:44:04;12.30;;;7.20;;
5303;SDS011;2674;49.722;10.892;2023-07-09T05:46:33;11.07;;;6.50;;
5303;SDS011;2674;49.722;10.892;2023-07-09T05:49:01;8.73;;;6.50;;
5303;SDS011;2674;49.722;10.892;2023-07-09T05:51:28;20.50;;;7.50;;
5303;SDS011;2674;49.722;10.892;2023-07-09T05:53:54;12.40;;;7.03;;
5303;SDS011;2674;49.722;10.892;2023-07-09T05:56:20;10.40;;;7.30;;
5303;SDS011;2674;49.722;10.892;2023-07-09T05:58:46;9.10;;;7.80;;
5303;SDS011;2674;49.722;10.892;2023-07-09T06:01:12;9.20;;;7.47;;
5303;SDS011;2674;49.722;10.892;2023-07-09T06:03:38;15.70;;;7.87;;
5303;SDS011;2674;49.722;10.892;2023-07-09T06:06:04;10.00;;;7.37;;
5303;SDS011;2674;49.722;10.892;2023-07-09T06:08:31;7.50;;;6.73;;
5303;SDS011;2674;49.722;10.892;2023-07-09T06:10:58;9.87;;;6.60;;
5303;SDS011;2674;49.722;10.892;2023-07-09T06:13:26;7.80;;;7.03;;
5303;SDS011;2674;49.722;10.892;2023-07-09T06:15:53;8.87;;;7.50;;
5303;SDS011;2674;49.722;10.892;2023-07-09T06:18:20;10.30;;;7.33;;
5303;SDS011;2674;49.722;10.892;2023-07-09T06:20:51;8.77;;;6.93;;
5303;SDS011;2674;49.722;10.892;2023-07-09T06:23:18;17.23;;;7.93;;
5303;SDS011;2674;49.722;10.892;2023-07-09T06:25:44;11.90;;;7.17;;
5303;SDS011;2674;49.722;10.892;2023-07-09T06:28:18;10.37;;;8.10;;
5303;SDS011;2674;49.722;10.892;2023-07-09T06:30:45;9.63;;;7.17;;
5303;SDS011;2674;49.722;10.892;2023-07-09T06:33:12;9.90;;;7.70;;
5303;SDS011;2674;49.722;10.892;2023-07-09T06:35:45;19.00;;;8.20;;
5303;SDS011;2674;49.722;10.892;2023-07-09T06:38:16;13.20;;;6.80;;
5303;SDS011;2674;49.722;10.892;2023-07-09T06:40:43;10.77;;;7.87;;
5303;SDS011;2674;49.722;10.892;2023-07-09T06:43:09;12.10;;;7.17;;
5303;SDS011;2674;49.722;10.892;2023-07-09T06:45:35;8.93;;;7.30;;
5303;SDS011;2674;49.722;10.892;2023-07-09T06:48:01;9.77;;;7.40;;
5303;SDS011;2674;49.722;10.892;2023-07-09T06:50:27;8.93;;;7.27;;
5303;SDS011;2674;49.722;10.892;2023-07-09T06:52:53;8.10;;;7.27;;
5303;SDS011;2674;49.722;10.892;2023-07-09T06:55:19;14.33;;;7.60;;
5303;SDS011;2674;49.722;10.892;2023-07-09T06:57:45;12.67;;;7.20;;
5303;SDS011;2674;49.722;10.892;2023-07-09T07:00:11;11.47;;;6.57;;
5303;SDS011;2674;49.722;10.892;2023-07-09T07:02:37;5.97;;;5.37;;
5303;SDS011;2674;49.722;10.892;2023-07-09T07:05:03;6.60;;;5.40;;
5303;SDS011;2674;49.722;10.892;2023-07-09T07:07:31;8.10;;;6.80;;
5303;SDS011;2674;49.722;10.892;2023-07-09T07:09:57;12.93;;;6.20;;
5303;SDS011;2674;49.722;10.892;2023-07-09T07:12:27;12.27;;;6.70;;
5303;SDS011;2674;49.722;10.892;2023-07-09T07:14:54;10.43;;;6.50;;
5303;SDS011;2674;49.722;10.892;2023-07-09T07:17:20;8.50;;;6.20;;
5303;SDS011;2674;49.722;10.892;2023-07-09T07:19:47;9.10;;;5.90;;
5303;SDS011;2674;49.722;10.892;2023-07-09T07:22:14;11.67;;;6.23;;
5303;SDS011;2674;49.722;10.892;2023-07-09T07:24:40;8.57;;;5.97;;
5303;SDS011;2674;49.722;10.892;2023-07-09T07:27:07;7.80;;;6.07;;
5303;SDS011;2674;49.722;10.892;2023-07-09T07:29:33;9.17;;;5.80;;
5303;SDS011;2674;49.722;10.892;2023-07-09T07:31:59;10.27;;;6.20;;
5303;SDS011;2674;49.722;10.892;2023-07-09T07:34:25;8.17;;;6.20;;
5303;SDS011;2674;49.722;10.892;2023-07-09T07:36:51;11.07;;;6.63;;
5303;SDS011;2674;49.722;10.892;2023-07-09T07:39:17;11.40;;;6.37;;
5303;SDS011;2674;49.722;10.892;2023-07-09T07:41:43;8.40;;;5.70;;
5303;SDS011;2674;49.722;10.892;2023-07-09T07:44:08;9.83;;;6.23;;
5303;SDS011;2674;49.722;10.892;2023-07-09T07:46:34;7.30;;;6.30;;
5303;SDS011;2674;49.722;10.892;2023-07-09T07:49:00;7.80;;;5.27;;
5303;SDS011;2674;49.722;10.892;2023-07-09T07:51:26;8.67;;;6.47;;
5303;SDS011;2674;49.722;10.892;2023-07-09T07:53:53;10.13;;;5.87;;
5303;SDS011;2674;49.722;10.892;2023-07-09T07:56:18;10.57;;;5.67;;
5303;SDS011;2674;49.722;10.892;2023-07-09T07:58:44;7.07;;;5.17;;
5303;SDS011;2674;49.722;10.892;2023-07-09T08:01:10;11.23;;;4.93;;
5303;SDS011;2674;49.722;10.892;2023-07-09T08:03:36;6.80;;;6.10;;
5303;SDS011;2674;49.722;10.892;2023-07-09T08:06:02;5.97;;;5.33;;
5303;SDS011;2674;49.722;10.892;2023-07-09T08:08:27;7.97;;;5.80;;
5303;SDS011;2674;49.722;10.892;2023-07-09T08:10:59;6.30;;;5.30;;
5303;SDS011;2674;49.722;10.892;2023-07-09T08:13:29;5.40;;;4.90;;
5303;SDS011;2674;49.722;10.892;2023-07-09T08:15:59;12.53;;;5.67;;
5303;SDS011;2674;49.722;10.892;2023-07-09T08:18:25;5.90;;;5.00;;
5303;SDS011;2674;49.722;10.892;2023-07-09T08:20:51;8.30;;;5.30;;
5303;SDS011;2674;49.722;10.892;2023-07-09T08:23:17;5.63;;;5.13;;
5303;SDS011;2674;49.722;10.892;2023-07-09T08:25:43;14.40;;;6.27;;
5303;SDS011;2674;49.722;10.892;2023-07-09T08:28:08;6.90;;;4.77;;
5303;SDS011;2674;49.722;10.892;2023-07-09T08:30:35;7.07;;;5.03;;
5303;SDS011;2674;49.722;10.892;2023-07-09T08:33:02;7.60;;;4.80;;
5303;SDS011;2674;49.722;10.892;2023-07-09T08:35:28;9.07;;;5.23;;
5303;SDS011;2674;49.722;10.892;2023-07-09T08:37:54;5.10;;;4.60;;
5303;SDS011;2674;49.722;10.892;2023-07-09T08:40:20;8.40;;;5.20;;
5303;SDS011;2674;49.722;10.892;2023-07-09T08:42:46;9.30;;;5.20;;
5303;SDS011;2674;49.722;10.892;2023-07-09T08:50:29;8.90;;;5.83;;
5303;SDS011;2674;49.722;10.892;2023-07-09T08:53:03;7.07;;;5.80;;
5303;SDS011;2674;49.722;10.892;2023-07-09T08:55:31;6.97;;;5.77;;
5303;SDS011;2674;49.722;10.892;2023-07-09T08:58:09;7.67;;;5.50;;
5303;SDS011;2674;49.722;10.892;2023-07-09T09:01:05;6.83;;;5.83;;
5303;SDS011;2674;49.722;10.892;2023-07-09T09:04:40;8.67;;;6.00;;
5303;SDS011;2674;49.722;10.892;2023-07-09T09:06:57;6.80;;;5.20;;
5303;SDS011;2674;49.722;10.892;2023-07-09T09:09:33;7.37;;;5.43;;
5303;SDS011;2674;49.722;10.892;2023-07-09T09:12:12;7.77;;;4.80;;
5303;SDS011;2674;49.722;10.892;2023-07-09T09:14:47;6.20;;;5.60;;
5303;SDS011;2674;49.722;10.892;2023-07-09T09:17:30;6.43;;;5.33;;
5303;SDS011;2674;49.722;10.892;2023-07-09T09:20:01;8.10;;;5.30;;
5303;SDS011;2674;49.722;10.892;2023-07-09T09:22:31;6.63;;;4.53;;
5303;SDS011;2674;49.722;10.892;2023-07-09T09:25:21;10.47;;;5.97;;
5303;SDS011;2674;49.722;10.892;2023-07-09T09:27:49;6.33;;;5.40;;
5303;SDS011;2674;49.722;10.892;2023-07-09T09:30:16;5.47;;;5.00;;
5303;SDS011;2674;49.722;10.892;2023-07-09T09:32:45;6.67;;;5.20;;
5303;SDS011;2674;49.722;10.892;2023-07-09T09:35:17;6.73;;;4.83;;
5303;SDS011;2674;49.722;10.892;2023-07-09T09:37:53;9.23;;;5.40;;
5303;SDS011;2674;49.722;10.892;2023-07-09T09:40:20;10.30;;;5.73;;
5303;SDS011;2674;49.722;10.892;2023-07-09T09:42:48;9.37;;;5.30;;
5303;SDS011;2674;49.722;10.892;2023-07-09T09:45:16;5.97;;;4.57;;
5303;SDS011;2674;49.722;10.892;2023-07-09T09:47:45;5.97;;;5.07;;
5303;SDS011;2674;49.722;10.892;2023-07-09T09:50:15;6.60;;;4.90;;
5303;SDS011;2674;49.722;10.892;2023-07-09T09:52:42;6.97;;;5.03;;
5303;SDS011;2674;49.722;10.892;2023-07-09T09:55:19;8.90;;;4.90;;
5303;SDS011;2674;49.722;10.892;2023-07-09T09:57:50;5.73;;;4.40;;
5303;SDS011;2674;49.722;10.892;2023-07-09T10:00:18;7.10;;;5.03;;
5303;SDS011;2674;49.722;10.892;2023-07-09T10:02:47;5.23;;;4.37;;
5303;SDS011;2674;49.722;10.892;2023-07-09T10:05:13;14.43;;;6.60;;
5303;SDS011;2674;49.722;10.892;2023-07-09T10:07:47;4.87;;;3.93;;
5303;SDS011;2674;49.722;10.892;2023-07-09T10:10:20;5.07;;;4.20;;
5303;SDS011;2674;49.722;10.892;2023-07-09T10:12:57;7.63;;;4.40;;
5303;SDS011;2674;49.722;10.892;2023-07-09T10:19:25;7.07;;;4.90;;
5303;SDS011;2674;49.722;10.892;2023-07-09T10:27:07;6.40;;;3.70;;
5303;SDS011;2674;49.722;10.892;2023-07-09T10:29:59;7.27;;;5.37;;
5303;SDS011;2674;49.722;10.892;2023-07-09T10:38:22;6.60;;;4.77;;
5303;SDS011;2674;49.722;10.892;2023-07-09T10:40:58;7.77;;;5.10;;
5303;SDS011;2674;49.722;10.892;2023-07-09T10:43:48;10.47;;;4.47;;
5303;SDS011;2674;49.722;10.892;2023-07-09T10:46:34;5.43;;;4.60;;
5303;SDS011;2674;49.722;10.892;2023-07-09T10:49:02;9.07;;;4.50;;
5303;SDS011;2674;49.722;10.892;2023-07-09T10:56:43;6.22;;;4.55;;
5303;SDS011;2674;49.722;10.892;2023-07-09T11:01:50;8.75;;;4.25;;
5303;SDS011;2674;49.722;10.892;2023-07-09T11:07:23;8.80;;;4.68;;
5303;SDS011;2674;49.722;10.892;2023-07-09T11:10:58;4.60;;;4.20;;
5303;SDS011;2674;49.722;10.892;2023-07-09T11:13:14;9.13;;;4.95;;
5303;SDS011;2674;49.722;10.892;2023-07-09T11:15:46;5.45;;;4.05;;
5303;SDS011;2674;49.722;10.892;2023-07-09T11:18:20;6.82;;;4.10;;
5303;SDS011;2674;49.722;10.892;2023-07-09T11:21:06;6.18;;;4.78;;
5303;SDS011;2674;49.722;10.892;2023-07-09T11:26:25;7.97;;;4.35;;
5303;SDS011;2674;49.722;10.892;2023-07-09T11:31:35;7.25;;;4.43;;
5303;SDS011;2674;49.722;10.892;2023-07-09T11:36:32;8.73;;;4.25;;
5303;SDS011;2674;49.722;10.892;2023-07-09T11:39:00;5.88;;;4.65;;
5303;SDS011;2674;49.722;10.892;2023-07-09T11:41:33;9.60;;;4.88;;
5303;SDS011;2674;49.722;10.892;2023-07-09T11:47:12;11.85;;;4.75;;
5303;SDS011;2674;49.722;10.892;2023-07-09T11:49:49;6.65;;;4.45;;
5303;SDS011;2674;49.722;10.892;2023-07-09T11:52:37;6.25;;;4.38;;
5303;SDS011;2674;49.722;10.892;2023-07-09T11:57:40;9.25;;;4.47;;
5303;SDS011;2674;49.722;10.892;2023-07-09T12:00:08;6.78;;;4.40;;
5303;SDS011;2674;49.722;10.892;2023-07-09T12:02:34;7.93;;;4.60;;
5303;SDS011;2674;49.722;10.892;2023-07-09T12:05:00;8.25;;;4.35;;
5303;SDS011;2674;49.722;10.892;2023-07-09T12:07:29;7.55;;;4.32;;
5303;SDS011;2674;49.722;10.892;2023-07-09T12:09:54;11.25;;;5.07;;
5303;SDS011;2674;49.722;10.892;2023-07-09T12:12:23;5.43;;;4.25;;
5303;SDS011;2674;49.722;10.892;2023-07-09T12:14:50;7.43;;;4.10;;
5303;SDS011;2674;49.722;10.892;2023-07-09T12:17:16;6.20;;;4.70;;
5303;SDS011;2674;49.722;10.892;2023-07-09T12:19:42;6.10;;;4.35;;
5303;SDS011;2674;49.722;10.892;2023-07-09T12:22:18;13.07;;;5.18;;
5303;SDS011;2674;49.722;10.892;2023-07-09T12:24:47;5.38;;;4.88;;
5303;SDS011;2674;49.722;10.892;2023-07-09T12:27:19;8.57;;;4.97;;
5303;SDS011;2674;49.722;10.892;2023-07-09T12:29:54;7.15;;;5.22;;
5303;SDS011;2674;49.722;10.892;2023-07-09T12:32:22;7.22;;;4.72;;
5303;SDS011;2674;49.722;10.892;2023-07-09T12:34:51;5.18;;;4.22;;
5303;SDS011;2674;49.722;10.892;2023-07-09T12:37:19;5.50;;;4.13;;
5303;SDS011;2674;49.722;10.892;2023-07-09T12:39:48;8.40;;;4.10;;
5303;SDS011;2674;49.722;10.892;2023-07-09T12:42:18;7.22;;;4.80;;
5303;SDS011;2674;49.722;10.892;2023-07-09T12:44:48;7.07;;;4.53;;
5303;SDS011;2674;49.722;10.892;2023-07-09T12:47:15;7.93;;;5.00;;
5303;SDS011;2674;49.722;10.892;2023-07-09T12:49:43;7.13;;;4.40;;
5303;SDS011;2674;49.722;10.892;2023-07-09T12:52:15;7.78;;;4.53;;
5303;SDS011;2674;49.722;10.892;2023-07-09T12:54:51;5.00;;;4.50;;
5303;SDS011;2674;49.722;10.892;2023-07-09T12:57:21;7.60;;;4.13;;
5303;SDS011;2674;49.722;10.892;2023-07-09T12:59:48;4.93;;;4.43;;
5303;SDS011;2674;49.722;10.892;2023-07-09T13:02:16;5.70;;;4.65;;
5303;SDS011;2674;49.722;10.892;2023-07-09T13:05:00;6.85;;;4.20;;
5303;SDS011;2674;49.722;10.892;2023-07-09T13:07:32;9.68;;;5.60;;
5303;SDS011;2674;49.722;10.892;2023-07-09T13:10:04;5.50;;;4.18;;
5303;SDS011;2674;49.722;10.892;2023-07-09T13:12:32;7.47;;;4.60;;
5303;SDS011;2674;49.722;10.892;2023-07-09T13:14:59;8.20;;;4.10;;
5303;SDS011;2674;49.722;10.892;2023-07-09T13:17:34;8.00;;;4.13;;
5303;SDS011;2674;49.722;10.892;2023-07-09T13:20:00;7.93;;;4.85;;
5303;SDS011;2674;49.722;10.892;2023-07-09T13:22:27;5.40;;;4.85;;
5303;SDS011;2674;49.722;10.892;2023-07-09T13:24:53;7.45;;;4.72;;
5303;SDS011;2674;49.722;10.892;2023-07-09T13:27:19;6.57;;;4.00;;
5303;SDS011;2674;49.722;10.892;2023-07-09T13:29:45;5.53;;;4.35;;
5303;SDS011;2674;49.722;10.892;2023-07-09T13:32:13;7.00;;;4.35;;
5303;SDS011;2674;49.722;10.892;2023-07-09T13:34:40;6.72;;;4.90;;
5303;SDS011;2674;49.722;10.892;2023-07-09T13:37:14;7.55;;;4.88;;
5303;SDS011;2674;49.722;10.892;2023-07-09T13:39:41;10.05;;;4.63;;
5303;SDS011;2674;49.722;10.892;2023-07-09T13:42:12;7.07;;;5.05;;
5303;SDS011;2674;49.722;10.892;2023-07-09T13:44:40;7.25;;;4.57;;
5303;SDS011;2674;49.722;10.892;2023-07-09T13:47:11;5.40;;;4.45;;
5303;SDS011;2674;49.722;10.892;2023-07-09T13:49:41;6.78;;;4.47;;
5303;SDS011;2674;49.722;10.892;2023-07-09T13:52:16;8.75;;;4.72;;
5303;SDS011;2674;49.722;10.892;2023-07-09T13:54:44;11.30;;;5.05;;
5303;SDS011;2674;49.722;10.892;2023-07-09T13:57:14;11.32;;;4.53;;
5303;SDS011;2674;49.722;10.892;2023-07-09T13:59:42;7.13;;;4.80;;
5303;SDS011;2674;49.722;10.892;2023-07-09T14:02:19;6.72;;;5.28;;
5303;SDS011;2674;49.722;10.892;2023-07-09T14:04:46;8.95;;;5.18;;
5303;SDS011;2674;49.722;10.892;2023-07-09T14:07:20;5.35;;;4.85;;
5303;SDS011;2674;49.722;10.892;2023-07-09T14:10:00;5.90;;;5.28;;
5303;SDS011;2674;49.722;10.892;2023-07-09T14:12:27;5.45;;;4.50;;
5303;SDS011;2674;49.722;10.892;2023-07-09T14:14:58;6.78;;;4.82;;
5303;SDS011;2674;49.722;10.892;2023-07-09T14:17:25;6.35;;;4.68;;
5303;SDS011;2674;49.722;10.892;2023-07-09T14:19:52;8.73;;;5.10;;
5303;SDS011;2674;49.722;10.892;2023-07-09T14:22:20;8.75;;;4.90;;
5303;SDS011;2674;49.722;10.892;2023-07-09T14:24:46;8.68;;;4.80;;
5303;SDS011;2674;49.722;10.892;2023-07-09T14:27:12;7.93;;;4.63;;
5303;SDS011;2674;49.722;10.892;2023-07-09T14:29:38;9.75;;;4.60;;
5303;SDS011;2674;49.722;10.892;2023-07-09T14:32:04;8.07;;;4.80;;
5303;SDS011;2674;49.722;10.892;2023-07-09T14:34:34;7.78;;;4.95;;
5303;SDS011;2674;49.722;10.892;2023-07-09T14:37:04;4.93;;;4.25;;
5303;SDS011;2674;49.722;10.892;2023-07-09T14:39:32;8.00;;;5.60;;
5303;SDS011;2674;49.722;10.892;2023-07-09T14:41:58;4.93;;;4.32;;
5303;SDS011;2674;49.722;10.892;2023-07-09T14:44:28;4.63;;;4.22;;
5303;SDS011;2674;49.722;10.892;2023-07-09T14:46:57;9.93;;;4.68;;
5303;SDS011;2674;49.722;10.892;2023-07-09T14:49:27;7.32;;;4.70;;
5303;SDS011;2674;49.722;10.892;2023-07-09T14:51:53;5.40;;;4.35;;
5303;SDS011;2674;49.722;10.892;2023-07-09T14:54:21;4.75;;;4.25;;
5303;SDS011;2674;49.722;10.892;2023-07-09T14:56:47;9.25;;;5.63;;
5303;SDS011;2674;49.722;10.892;2023-07-09T14:59:14;5.90;;;4.25;;
5303;SDS011;2674;49.722;10.892;2023-07-09T15:01:40;7.38;;;4.72;;
5303;SDS011;2674;49.722;10.892;2023-07-09T15:06:58;5.18;;;4.55;;
5303;SDS011;2674;49.722;10.892;2023-07-09T15:09:26;5.95;;;4.95;;
5303;SDS011;2674;49.722;10.892;2023-07-09T15:11:54;9.02;;;4.50;;
5303;SDS011;2674;49.722;10.892;2023-07-09T15:14:21;9.65;;;4.55;;
5303;SDS011;2674;49.722;10.892;2023-07-09T15:16:49;6.43;;;4.65;;
5303;SDS011;2674;49.722;10.892;2023-07-09T15:19:16;8.77;;;5.18;;
5303;SDS011;2674;49.722;10.892;2023-07-09T15:21:44;10.38;;;5.55;;
5303;SDS011;2674;49.722;10.892;2023-07-09T15:24:17;4.95;;;4.07;;
5303;SDS011;2674;49.722;10.892;2023-07-09T15:26:54;8.63;;;4.70;;
5303;SDS011;2674;49.722;10.892;2023-07-09T15:29:21;9.02;;;4.65;;
5303;SDS011;2674;49.722;10.892;2023-07-09T15:31:47;5.07;;;4.38;;
5303;SDS011;2674;49.722;10.892;2023-07-09T15:34:13;13.73;;;4.90;;
5303;SDS011;2674;49.722;10.892;2023-07-09T15:36:49;9.60;;;5.65;;
5303;SDS011;2674;49.722;10.892;2023-07-09T15:39:17;5.65;;;4.47;;
5303;SDS011;2674;49.722;10.892;2023-07-09T15:41:43;13.60;;;4.68;;
5303;SDS011;2674;49.722;10.892;2023-07-09T15:44:14;7.85;;;5.22;;
5303;SDS011;2674;49.722;10.892;2023-07-09T15:46:47;5.20;;;4.70;;
5303;SDS011;2674;49.722;10.892;2023-07-09T15:49:20;7.05;;;4.70;;
5303;SDS011;2674;49.722;10.892;2023-07-09T15:51:46;7.68;;;4.50;;
5303;SDS011;2674;49.722;10.892;2023-07-09T15:54:16;7.30;;;5.00;;
5303;SDS011;2674;49.722;10.892;2023-07-09T15:56:44;13.18;;;5.00;;
5303;SDS011;2674;49.722;10.892;2023-07-09T15:59:24;5.57;;;4.28;;
5303;SDS011;2674;49.722;10.892;2023-07-09T16:01:52;9.70;;;4.75;;
5303;SDS011;2674;49.722;10.892;2023-07-09T16:04:18;13.60;;;5.18;;
5303;SDS011;2674;49.722;10.892;2023-07-09T16:06:44;7.90;;;4.43;;